Latest Weather Observations for Redesdale

IDV60801

Issued at 7:31 pm EST Sunday 1 May 2016 (issued every 30 minutes, with the page automatically refreshed every 10 minutes)

About weather observations | Map of weather stations | Latest weather observations for VIC | Other Formats
Station Details ID: 088051 Name: REDESDALE Lat: -37.02 Lon: 144.52 Height: 290.0 m
Data from the previous 72 hours. | See also: Recent months at Redesdale
Date/Time
EST
Temp
°C
App
Temp
°C
Dew
Point
Rel
Hum
%
Delta-T
°C
Wind Press
QNH
hPa
Press
MSL
hPa
Rain
since 9 am
mm
Dir
 
Spd
km/h
Gust
km/h
Spd
kts
Gust
kts
01/07:30pm 9.2 7.1 4.0 70 2.3 WSW 4 6 2 3 - - 0.4
01/07:00pm 9.5 7.5 4.5 71 2.3 SW 4 6 2 3 - - 0.4
01/06:30pm 9.6 7.0 4.4 70 2.3 SW 7 11 4 6 - - 0.4
01/06:00pm 10.8 7.5 4.5 65 2.9 SW 11 17 6 9 - - 0.4
01/05:30pm 12.2 8.5 4.2 58 3.7 WSW 13 20 7 11 - - 0.4
01/05:00pm 12.6 9.0 5.1 60 3.5 WSW 13 24 7 13 - - 0.4
01/04:30pm 12.6 8.7 5.3 61 3.4 WSW 15 24 8 13 - - 0.4
01/04:00pm 13.7 10.0 6.3 61 3.6 W 15 26 8 14 - - 0.4
01/03:30pm 13.4 9.0 6.5 63 3.4 WSW 19 28 10 15 - - 0.4
01/03:00pm 13.2 9.8 7.6 69 2.8 WSW 15 26 8 14 - - 0.4
01/02:30pm 12.3 9.7 7.8 74 2.2 WNW 11 20 6 11 - - 0.4
01/02:00pm 12.9 9.6 8.0 72 2.5 WSW 15 24 8 13 - - 0.4
01/01:30pm 11.9 8.6 8.2 78 1.8 WSW 15 26 8 14 - - 0.4
01/01:00pm 12.2 9.7 9.6 84 1.3 WNW 13 22 7 12 - - 0.4
01/12:30pm 12.2 7.2 8.1 76 2.0 NW 24 35 13 19 - - 0.2
01/12:00pm 12.0 7.9 7.7 75 2.1 NW 19 37 10 20 - - 0.2
01/11:30am 11.7 8.1 8.2 79 1.7 WNW 17 32 9 17 - - 0.2
01/11:00am 12.4 8.1 7.1 70 2.6 WNW 19 32 10 17 - - 0.2
01/10:30am 11.0 6.7 7.9 81 1.5 NW 20 33 11 18 - - 0.0
01/10:00am 12.2 7.8 7.5 73 2.3 WNW 20 37 11 20 - - 0.0
01/09:30am 11.2 6.9 7.9 80 1.6 WNW 20 41 11 22 - - 0.0
01/09:00am 13.0 9.1 8.5 74 2.3 WNW 19 33 10 18 - - 16.0
01/08:30am 12.3 6.5 7.8 74 2.2 NW 28 41 15 22 - - 16.0
01/08:00am 12.3 7.0 8.4 77 2.0 NW 26 37 14 20 - - 16.0
01/07:30am 12.2 6.4 7.9 75 2.1 NW 28 46 15 25 - - 16.0
01/07:23am 12.4 6.6 7.9 74 2.2 NW 28 50 15 27 - - 16.0
01/07:00am 12.5 8.1 9.0 79 1.8 NW 22 33 12 18 - - 16.0
01/06:30am 12.3 9.1 11.2 93 0.6 NNW 19 32 10 17 - - 16.0
01/06:00am 12.1 10.2 11.8 98 0.2 N 13 19 7 10 - - 16.0
01/05:30am 12.2 10.4 12.0 99 0.1 NNW 13 24 7 13 - - 16.0
01/05:00am 11.4 10.5 11.2 99 0.1 N 7 11 4 6 - - 15.8
01/04:30am 11.5 10.2 11.3 99 0.1 N 9 13 5 7 - - 15.8
01/04:00am 11.6 10.9 11.4 99 0.1 NNE 6 6 3 3 - - 15.8
01/03:30am 11.6 10.9 11.3 98 0.2 N 6 7 3 4 - - 15.8
01/03:00am 11.8 10.2 11.5 98 0.2 N 11 20 6 11 - - 14.2
01/02:30am 11.3 7.9 10.5 95 0.4 NNW 19 28 10 15 - - 10.8
01/02:26am 11.4 7.8 10.6 95 0.4 NNW 20 35 11 19 - - 10.0
01/02:09am 16.5 12.6 15.5 94 0.6 NNE 30 70 16 38 - - 2.0
01/02:00am 16.8 14.4 15.3 91 0.9 NNE 22 35 12 19 - - 0.0
01/01:30am 16.8 15.3 15.3 91 0.9 NNE 17 24 9 13 - - 0.0
01/01:00am 16.7 15.2 15.4 92 0.8 NNE 17 24 9 13 - - 0.0
01/12:30am 16.6 15.9 15.5 93 0.7 NNE 13 22 7 12 - - 0.0
01/12:00am 16.3 15.2 15.2 93 0.6 NNE 15 24 8 13 - - 0.0
 
Date/Time
EST
Temp
°C
App
Temp
°C
Dew
Point
Rel
Hum
%
Delta-T
°C
Wind Press
QNH
hPa
Press
MSL
hPa
Rain
since 9 am
mm
Dir
 
Spd
km/h
Gust
km/h
Spd
kts
Gust
kts
30/11:30pm 16.3 15.4 14.8 91 0.9 NNE 13 20 7 11 - - 0.0
30/11:00pm 16.6 15.7 14.8 89 1.1 NNE 13 22 7 12 - - 0.0
30/10:30pm 17.1 15.8 14.7 86 1.4 NNE 15 24 8 13 - - 0.0
30/10:00pm 17.4 15.8 14.9 85 1.5 NNE 17 24 9 13 - - 0.0
30/09:30pm 17.6 16.8 15.0 85 1.5 NNE 13 20 7 11 - - 0.0
30/09:00pm 17.2 16.7 14.8 86 1.4 NNE 11 17 6 9 - - 0.0
30/08:30pm 17.1 17.5 15.3 89 1.1 NNE 7 13 4 7 - - 0.0
30/08:00pm 17.0 17.0 15.3 90 1.0 NNE 9 15 5 8 - - 0.0
30/07:30pm 17.0 17.4 15.3 90 1.0 NNE 7 11 4 6 - - 0.0
30/07:00pm 16.9 17.5 15.2 90 1.0 NNE 6 9 3 5 - - 0.0
30/06:30pm 17.2 17.3 15.4 89 1.1 NE 9 13 5 7 - - 0.0
30/06:00pm 17.5 17.8 15.1 86 1.4 NNE 7 11 4 6 - - 0.0
30/05:30pm 18.2 18.2 15.3 83 1.7 NNE 9 17 5 9 - - 0.0
30/05:00pm 18.8 17.6 15.1 79 2.2 NNE 15 26 8 14 - - 0.0
30/04:30pm 18.9 17.2 14.8 77 2.4 N 17 28 9 15 - - 0.0
30/04:00pm 19.1 17.0 14.6 75 2.6 N 19 28 10 15 - - 0.0
30/03:30pm 19.1 17.9 15.0 77 2.4 NNE 15 22 8 12 - - 0.0
30/03:00pm 19.4 18.1 14.9 75 2.7 NNE 15 20 8 11 - - 0.0
30/02:30pm 19.2 17.9 14.9 76 2.5 N 15 20 8 11 - - 0.0
30/02:00pm 19.6 18.1 15.3 76 2.6 N 17 28 9 15 - - 0.0
30/01:30pm 19.2 17.7 15.3 78 2.3 N 17 24 9 13 - - 0.0
30/01:00pm 18.7 16.7 15.6 82 1.9 N 20 30 11 16 - - 0.0
30/12:30pm 18.4 17.0 15.6 84 1.7 N 17 26 9 14 - - 0.0
30/12:00pm 18.1 16.3 15.9 87 1.3 NNE 20 30 11 16 - - 0.0
30/11:30am 18.0 16.7 15.8 87 1.3 NNE 17 28 9 15 - - 0.0
30/11:00am 17.1 15.8 15.8 92 0.8 NNE 17 26 9 14 - - 0.0
30/10:30am 16.9 15.1 15.6 92 0.8 NNE 19 26 10 14 - - 0.0
30/10:00am 16.9 15.6 15.9 94 0.6 NNE 17 26 9 14 - - 0.0
30/09:30am 16.3 15.7 15.7 96 0.4 NNE 13 19 7 10 - - 0.0
30/09:00am 16.2 15.7 15.9 98 0.2 NNE 13 22 7 12 - - 10.4
30/08:30am 16.0 15.5 15.8 99 0.1 NNE 13 22 7 12 - - 10.4
30/08:00am 15.9 15.7 15.7 99 0.1 NNE 11 17 6 9 - - 10.4
30/07:30am 15.8 15.9 15.6 99 0.1 NNE 9 15 5 8 - - 10.4
30/07:00am 15.7 16.2 15.5 99 0.1 NNE 7 11 4 6 - - 10.4
30/06:30am 15.7 15.8 15.5 99 0.1 NNE 9 17 5 9 - - 10.4
30/06:00am 15.7 16.2 15.5 99 0.1 NNE 7 11 4 6 - - 10.4
30/05:30am 15.6 16.2 15.4 99 0.1 NNE 6 9 3 5 - - 10.4
30/05:00am 15.7 16.2 15.5 99 0.1 NNE 7 9 4 5 - - 10.4
30/04:30am 15.5 16.1 15.3 99 0.1 N 6 9 3 5 - - 10.4
30/04:00am 15.5 15.9 15.3 99 0.1 N 7 9 4 5 - - 10.2
30/03:30am 15.6 16.2 15.4 99 0.1 N 6 7 3 4 - - 10.2
30/03:00am 16.1 16.7 15.9 99 0.1 N 7 9 4 5 - - 10.2
30/02:30am 16.1 16.9 15.9 99 0.1 N 6 7 3 4 - - 10.2
30/02:00am 16.3 16.2 16.1 99 0.1 N 11 17 6 9 - - 10.2
30/01:30am 16.1 16.4 15.9 99 0.1 N 9 11 5 6 - - 10.2
30/01:00am 16.2 16.9 16.0 99 0.1 N 7 13 4 7 - - 10.2
30/12:30am 16.2 16.9 16.0 99 0.1 N 7 9 4 5 - - 10.2
30/12:00am 16.2 16.5 16.0 99 0.1 N 9 17 5 9 - - 10.2
 
Date/Time
EST
Temp
°C
App
Temp
°C
Dew
Point
Rel
Hum
%
Delta-T
°C
Wind Press
QNH
hPa
Press
MSL
hPa
Rain
since 9 am
mm
Dir
 
Spd
km/h
Gust
km/h
Spd
kts
Gust
kts
29/11:30pm 16.3 16.6 16.1 99 0.1 N 9 15 5 8 - - 10.2
29/11:00pm 16.1 16.4 15.9 99 0.1 N 9 13 5 7 - - 10.2
29/10:30pm 16.3 16.6 16.1 99 0.1 N 9 13 5 7 - - 10.2
29/10:00pm 16.2 16.1 16.0 99 0.1 N 11 19 6 10 - - 10.2
29/09:30pm 16.1 16.0 15.9 99 0.1 N 11 17 6 9 - - 10.2
29/09:00pm 16.0 15.5 15.8 99 0.1 N 13 20 7 11 - - 10.2
29/08:30pm 15.8 15.6 15.6 99 0.1 N 11 17 6 9 - - 10.2
29/08:00pm 15.7 15.0 15.5 99 0.1 NNE 13 19 7 10 - - 10.2
29/07:30pm 15.6 15.7 15.4 99 0.1 NNE 9 15 5 8 - - 10.2
29/07:00pm 15.7 15.0 15.5 99 0.1 N 13 20 7 11 - - 9.8
29/06:30pm 15.6 14.9 15.4 99 0.1 N 13 19 7 10 - - 9.6
29/06:00pm 15.7 15.8 15.4 98 0.2 NNE 9 17 5 9 - - 9.6
29/05:30pm 15.8 15.0 15.0 95 0.5 NNE 13 19 7 10 - - 9.4
29/05:00pm 15.9 15.9 15.1 95 0.5 N 9 13 5 7 - - 9.4
29/04:30pm 15.9 15.4 14.9 94 0.6 N 11 19 6 10 - - 9.4
29/04:00pm 15.9 15.2 15.4 97 0.3 NNE 13 22 7 12 - - 9.4
29/03:30pm 15.8 15.5 15.5 98 0.2 NNE 11 17 6 9 - - 9.4
29/03:00pm 15.8 15.1 15.5 98 0.2 N 13 17 7 9 - - 9.0
29/02:30pm 15.9 16.0 15.4 97 0.3 N 9 15 5 8 - - 8.6
29/02:00pm 15.9 16.0 15.4 97 0.3 N 9 13 5 7 - - 8.2
29/01:30pm 15.8 15.6 15.6 99 0.1 N 11 15 6 8 - - 8.0
29/01:00pm 15.7 15.8 15.5 99 0.1 N 9 15 5 8 - - 8.0
29/12:30pm 15.0 15.4 14.8 99 0.1 N 6 9 3 5 - - 7.6
29/12:00pm 14.9 15.1 14.6 98 0.2 NNE 7 11 4 6 - - 6.8
29/11:30am 14.8 15.0 14.3 97 0.3 SW 6 9 3 5 - - 5.6
29/11:00am 14.6 15.1 14.1 97 0.3 N 4 7 2 4 - - 4.4
29/10:30am 14.5 14.3 13.7 95 0.5 N 7 9 4 5 - - 3.6
29/10:00am 14.8 15.5 13.5 92 0.7 W 2 6 1 3 - - 1.8
29/09:30am 15.1 15.5 13.8 92 0.7 N 4 6 2 3 - - 0.4
29/09:00am 15.5 15.8 13.3 87 1.2 WNW 4 6 2 3 - - 2.0
29/08:30am 15.7 16.5 12.5 81 1.8 CALM 0 4 0 2 - - 1.6
29/08:00am 16.1 16.3 11.9 76 2.3 NNW 2 6 1 3 - - 1.4
29/07:30am 15.9 14.8 11.9 77 2.2 WSW 9 15 5 8 - - 1.2
29/07:00am 15.3 14.5 11.7 79 2.0 SE 7 13 4 7 - - 1.2
29/06:30am 14.9 14.0 10.7 76 2.3 E 6 7 3 4 - - 0.2
29/06:00am 15.2 15.2 11.2 77 2.2 NE 2 6 1 3 - - 0.0
29/05:30am 15.1 15.5 11.1 77 2.2 CALM 0 4 0 2 - - 0.0
29/05:00am 13.2 12.9 8.7 74 2.3 CALM 0 2 0 1 - - 0.0
29/04:30am 14.4 12.9 8.6 68 3.0 SE 6 6 3 3 - - 0.0
29/04:00am 13.7 12.2 8.3 70 2.7 SSE 6 6 3 3 - - 0.0
29/03:30am 13.5 11.8 7.7 68 2.9 SSE 6 6 3 3 - - 0.0
29/03:00am 14.0 12.4 8.0 67 3.0 ESE 6 7 3 4 - - 0.0
29/02:30am 14.0 12.4 8.0 67 3.0 SSE 6 7 3 4 - - 0.0
29/02:00am 13.9 12.5 7.2 64 3.3 S 4 6 2 3 - - 0.0
29/01:30am 13.3 12.0 7.7 69 2.8 S 4 6 2 3 - - 0.0
29/01:00am 13.2 11.9 7.6 69 2.8 S 4 4 2 2 - - 0.0
29/12:30am 13.8 12.2 7.8 67 3.0 S 6 7 3 4 - - 0.0
29/12:00am 14.7 13.1 8.0 64 3.4 S 6 6 3 3 - - 0.0
 
Date/Time
EST
Temp
°C
App
Temp
°C
Dew
Point
Rel
Hum
%
Delta-T
°C
Wind Press
QNH
hPa
Press
MSL
hPa
Rain
since 9 am
mm
Dir
 
Spd
km/h
Gust
km/h
Spd
kts
Gust
kts
28/11:30pm 15.3 13.8 8.3 63 3.6 S 6 7 3 4 - - 0.0
28/11:00pm 16.1 14.6 8.3 60 4.0 S 6 7 3 4 - - 0.0
28/10:30pm 16.1 14.4 8.3 60 4.0 S 7 9 4 5 - - 0.0
28/10:00pm 16.1 14.5 8.1 59 4.1 WSW 6 7 3 4 - - 0.0
28/09:30pm 15.7 13.8 7.7 59 4.1 WSW 7 7 4 4 - - 0.0
28/09:00pm 16.2 15.7 7.7 57 4.3 CALM 0 0 0 0 - - 0.0
28/08:30pm 16.8 16.3 7.7 55 4.6 CALM 0 0 0 0 - - 0.0
28/08:00pm 17.2 16.6 7.5 53 4.9 CALM 0 0 0 0 - - 0.0

Other Formats:

Comma delimited format used in spreadsheet applications
http://www.bom.gov.au/fwo/IDV60801/IDV60801.94859.axf

JavaScript Object Notation format (JSON) in row-major order
http://www.bom.gov.au/fwo/IDV60801/IDV60801.94859.json